createdAt,value
2022-09-12T00:02:21.212Z,101703.00
2022-09-12T00:04:50.561Z,101686.91
2022-09-12T00:07:19.998Z,101685.81
2022-09-12T00:09:49.543Z,101691.50
2022-09-12T00:12:18.801Z,101693.09
2022-09-12T00:14:48.079Z,101681.91
2022-09-12T00:17:18.909Z,101682.75
2022-09-12T00:19:48.332Z,101679.59
2022-09-12T00:22:17.627Z,101677.25
2022-09-12T00:24:47.024Z,101680.09
2022-09-12T00:27:16.349Z,101675.28
2022-09-12T00:29:45.983Z,101671.72
2022-09-12T00:32:15.259Z,101669.78
2022-09-12T00:34:44.581Z,101673.13
2022-09-12T00:37:13.863Z,101665.91
2022-09-12T00:39:43.422Z,101669.63
2022-09-12T00:42:15.008Z,101657.19
2022-09-12T00:44:47.214Z,101646.03
2022-09-12T00:47:23.706Z,101657.44
2022-09-12T00:50:02.209Z,101658.50
2022-09-12T00:52:40.279Z,101653.84
2022-09-12T00:55:49.483Z,101658.75
2022-09-12T00:58:28.490Z,101653.97
2022-09-12T01:00:59.251Z,101652.28
2022-09-12T01:03:29.110Z,101645.84
2022-09-12T01:06:13.807Z,101651.13
2022-09-12T01:08:46.026Z,101647.63
2022-09-12T01:11:16.850Z,101639.19
2022-09-12T01:13:47.759Z,101639.69
2022-09-12T01:16:17.271Z,101630.81
2022-09-12T01:19:26.030Z,101635.75
2022-09-12T01:22:22.461Z,101622.84
2022-09-12T01:25:14.598Z,101624.78
2022-09-12T01:28:10.058Z,101613.84
2022-09-12T01:30:52.252Z,101622.25
2022-09-12T01:33:59.935Z,101619.88
2022-09-12T01:36:50.935Z,101623.47
2022-09-12T01:39:53.989Z,101623.44
2022-09-12T01:42:50.085Z,101620.88
2022-09-12T01:45:25.425Z,101611.97
2022-09-12T01:48:03.459Z,101612.75
2022-09-12T01:50:40.795Z,101612.81
2022-09-12T01:53:17.239Z,101612.06
2022-09-12T01:56:06.533Z,101609.69
2022-09-12T01:59:00.885Z,101607.28
2022-09-12T02:01:33.983Z,101598.72
2022-09-12T02:04:16.726Z,101608.03
2022-09-12T02:06:57.790Z,101602.44
2022-09-12T02:09:39.474Z,101600.41
2022-09-12T02:12:13.096Z,101596.78
2022-09-12T02:14:51.265Z,101596.84
2022-09-12T02:17:28.092Z,101586.31
2022-09-12T02:20:03.972Z,101577.53
2022-09-12T02:22:34.557Z,101583.97
2022-09-12T02:25:07.225Z,101582.81
2022-09-12T02:27:42.903Z,101578.00
2022-09-12T02:30:14.578Z,101570.38
2022-09-12T02:32:52.615Z,101571.19
2022-09-12T02:35:31.230Z,101569.16
2022-09-12T02:38:28.086Z,101560.66
2022-09-12T02:40:57.760Z,101566.19
2022-09-12T02:43:27.513Z,101573.38
2022-09-12T02:45:56.934Z,101565.69
2022-09-12T02:48:34.425Z,101576.59
2022-09-12T02:51:05.746Z,101567.72
2022-09-12T02:53:35.174Z,101567.78
2022-09-12T02:56:05.544Z,101573.44
2022-09-12T02:58:35.480Z,101575.91
2022-09-12T03:01:29.648Z,101580.72
2022-09-12T03:04:27.855Z,101579.03
2022-09-12T03:07:18.892Z,101587.09
2022-09-12T03:10:13.181Z,101572.94
2022-09-12T03:13:20.551Z,101566.06
2022-09-12T03:16:27.048Z,101571.66
2022-09-12T03:19:22.814Z,101561.84
2022-09-12T03:22:10.996Z,101559.88
2022-09-12T03:25:03.443Z,101564.69
2022-09-12T03:28:06.256Z,101566.66
2022-09-12T03:30:51.410Z,101564.19
2022-09-12T03:33:22.815Z,101548.78
2022-09-12T03:35:53.273Z,101556.91
2022-09-12T03:38:22.643Z,101552.91
2022-09-12T03:40:54.868Z,101552.13
2022-09-12T03:43:24.324Z,101549.75
2022-09-12T03:45:54.703Z,101542.09
2022-09-12T03:48:24.064Z,101540.50
2022-09-12T03:50:53.404Z,101539.03
2022-09-12T03:53:22.650Z,101534.13
2022-09-12T03:55:51.883Z,101538.13
2022-09-12T03:58:21.239Z,101530.75
2022-09-12T04:00:50.586Z,101523.16
2022-09-12T04:03:20.276Z,101527.06
2022-09-12T04:05:49.614Z,101533.03
2022-09-12T04:08:18.873Z,101534.53
2022-09-12T04:10:49.873Z,101520.91
2022-09-12T04:13:19.127Z,101527.22
2022-09-12T04:15:59.554Z,101529.16
2022-09-12T04:18:29.217Z,101517.38
2022-09-12T04:20:58.548Z,101522.28
2022-09-12T04:23:27.845Z,101526.19
2022-09-12T04:26:02.922Z,101528.16
2022-09-12T04:28:33.006Z,101520.44
2022-09-12T04:31:08.138Z,101512.28
2022-09-12T04:33:38.678Z,101511.94
2022-09-12T04:36:16.685Z,101519.44
2022-09-12T04:38:50.668Z,101516.97
2022-09-12T04:41:29.428Z,101515.28
2022-09-12T04:44:02.215Z,101519.28
2022-09-12T04:46:34.447Z,101520.44
2022-09-12T04:49:03.881Z,101521.50
2022-09-12T04:51:36.003Z,101510.97
2022-09-12T04:54:11.276Z,101519.03
2022-09-12T04:56:45.881Z,101504.94
2022-09-12T04:59:17.276Z,101510.72
2022-09-12T05:01:46.599Z,101502.13
2022-09-12T05:04:16.454Z,101505.25
2022-09-12T05:06:47.470Z,101504.00
2022-09-12T05:09:17.233Z,101509.59
2022-09-12T05:12:05.023Z,101509.50
2022-09-12T05:14:35.657Z,101509.44
2022-09-12T05:17:06.224Z,101506.94
2022-09-12T05:19:35.659Z,101520.59
2022-09-12T05:22:06.705Z,101511.63
2022-09-12T05:24:37.872Z,101511.53
2022-09-12T05:27:08.705Z,101513.84
2022-09-12T05:29:43.118Z,101512.97
2022-09-12T05:32:15.409Z,101510.16
2022-09-12T05:34:44.703Z,101512.97
2022-09-12T05:37:17.326Z,101520.31
2022-09-12T05:39:46.652Z,101523.44
2022-09-12T05:42:15.977Z,101525.28
2022-09-12T05:44:45.235Z,101526.44
2022-09-12T05:47:16.930Z,101526.34
2022-09-12T05:49:49.131Z,101524.41
2022-09-12T05:52:18.832Z,101531.38
2022-09-12T05:54:48.282Z,101530.44
2022-09-12T05:57:17.526Z,101522.97
2022-09-12T05:59:46.852Z,101525.97
2022-09-12T06:02:16.172Z,101530.31
2022-09-12T06:04:45.849Z,101530.56
2022-09-12T06:07:15.540Z,101535.22
2022-09-12T06:09:44.782Z,101539.94
2022-09-12T06:12:14.023Z,101544.81
2022-09-12T06:14:43.519Z,101533.81
2022-09-12T06:17:12.800Z,101534.84
2022-09-12T06:19:44.315Z,101533.94
2022-09-12T06:22:13.939Z,101528.25
2022-09-12T06:24:43.566Z,101532.25
2022-09-12T06:27:12.845Z,101536.56
2022-09-12T06:29:42.139Z,101528.75
2022-09-12T06:32:12.624Z,101533.19
2022-09-12T06:34:41.889Z,101530.94
2022-09-12T06:37:11.336Z,101536.50
2022-09-12T06:39:40.630Z,101527.41
2022-09-12T06:42:11.445Z,101527.31
2022-09-12T06:44:44.211Z,101535.06
2022-09-12T06:47:13.483Z,101537.69
2022-09-12T06:49:42.778Z,101539.03
2022-09-12T06:52:12.024Z,101537.28
2022-09-12T06:54:42.520Z,101529.97
2022-09-12T06:57:11.808Z,101529.09
2022-09-12T06:59:41.066Z,101523.41
2022-09-12T07:02:12.547Z,101515.22
2022-09-12T07:04:41.918Z,101521.72
2022-09-12T07:07:11.512Z,101520.91
2022-09-12T07:09:40.956Z,101513.16
2022-09-12T07:12:10.636Z,101511.78
2022-09-12T07:14:39.924Z,101513.41
2022-09-12T07:17:12.569Z,101522.59
2022-09-12T07:19:41.889Z,101522.06
2022-09-12T07:22:11.147Z,101525.56
2022-09-12T07:24:41.345Z,101515.66
2022-09-12T07:27:10.590Z,101514.69
2022-09-12T07:29:39.922Z,101523.53
2022-09-12T07:32:09.899Z,101520.94
2022-09-12T07:34:39.233Z,101519.94
2022-09-12T07:37:08.510Z,101523.28
2022-09-12T07:39:37.832Z,101521.09
2022-09-12T07:42:07.580Z,101522.97
2022-09-12T07:44:36.998Z,101522.06
2022-09-12T07:47:06.333Z,101520.44
2022-09-12T07:49:36.098Z,101518.81
2022-09-12T07:52:05.547Z,101516.31
2022-09-12T07:54:34.947Z,101519.84
2022-09-12T07:57:04.198Z,101516.69
2022-09-12T07:59:52.043Z,101511.81
2022-09-12T08:02:22.489Z,101515.53
2022-09-12T08:04:51.888Z,101521.59
2022-09-12T08:07:21.322Z,101517.44
2022-09-12T08:09:50.779Z,101524.13
2022-09-12T08:12:20.462Z,101522.22
2022-09-12T08:14:49.750Z,101529.19
2022-09-12T08:17:19.034Z,101532.69
2022-09-12T08:19:49.694Z,101534.88
2022-09-12T08:22:22.043Z,101526.38
2022-09-12T08:24:55.335Z,101535.69
2022-09-12T08:27:24.593Z,101531.19
2022-09-12T08:29:53.825Z,101530.47
2022-09-12T08:32:23.064Z,101532.66
2022-09-12T08:34:52.329Z,101533.59
2022-09-12T08:37:21.818Z,101533.63
2022-09-12T08:39:51.337Z,101533.13
2022-09-12T08:42:55.641Z,101535.44
2022-09-12T08:45:33.790Z,101530.78
2022-09-12T08:48:07.374Z,101527.63
2022-09-12T08:50:36.790Z,101539.31
2022-09-12T08:53:19.391Z,101523.91
2022-09-12T08:56:03.815Z,101526.28
2022-09-12T08:58:43.560Z,101531.25
2022-09-12T09:01:16.469Z,101532.34
2022-09-12T09:04:30.947Z,101536.69
2022-09-12T09:07:22.136Z,101531.22
2022-09-12T09:10:24.237Z,101525.50
2022-09-12T09:13:11.869Z,101536.78
2022-09-12T09:16:03.076Z,101532.31
2022-09-12T09:18:36.074Z,101525.59
2022-09-12T09:21:14.340Z,101527.06
2022-09-12T09:23:47.146Z,101525.50
2022-09-12T09:26:38.689Z,101521.59
2022-09-12T09:29:17.422Z,101525.06
2022-09-12T09:31:50.668Z,101523.13
2022-09-12T09:34:30.027Z,101520.38
2022-09-12T09:37:19.707Z,101520.06
2022-09-12T09:40:15.865Z,101514.31
2022-09-12T09:43:13.499Z,101509.63
2022-09-12T09:45:48.027Z,101508.84
2022-09-12T09:48:28.436Z,101508.41
2022-09-12T09:51:01.907Z,101508.00
2022-09-12T09:53:51.406Z,101504.56
2022-09-12T09:56:41.388Z,101500.22
2022-09-12T09:59:20.495Z,101497.16
2022-09-12T10:01:54.661Z,101484.59
2022-09-12T10:04:35.972Z,101485.41
2022-09-12T10:07:08.400Z,101488.53
2022-09-12T10:09:38.915Z,101474.63
2022-09-12T10:12:31.735Z,101470.41
2022-09-12T10:15:07.002Z,101471.47
2022-09-12T10:17:46.886Z,101471.97
2022-09-12T10:20:36.067Z,101480.34
2022-09-12T10:23:29.501Z,101467.69
2022-09-12T10:26:05.289Z,101462.38
2022-09-12T10:28:43.420Z,101464.47
2022-09-12T10:31:18.238Z,101457.66
2022-09-12T10:33:53.903Z,101452.94
2022-09-12T10:36:24.572Z,101458.97
2022-09-12T10:38:56.921Z,101459.78
2022-09-12T10:41:27.233Z,101462.72
2022-09-12T10:44:10.848Z,101439.28
2022-09-12T10:46:40.523Z,101439.00
2022-09-12T10:49:17.374Z,101439.75
2022-09-12T10:51:46.771Z,101437.59
2022-09-12T10:54:19.710Z,101432.06
2022-09-12T10:57:09.484Z,101438.53
2022-09-12T10:59:47.855Z,101440.63
2022-09-12T11:02:32.491Z,101432.19
2022-09-12T11:05:21.965Z,101430.66
2022-09-12T11:08:24.313Z,101424.59
2022-09-12T11:11:07.561Z,101426.75
2022-09-12T11:13:50.506Z,101417.81
2022-09-12T11:16:42.801Z,101413.28
2022-09-12T11:19:36.077Z,101409.78
2022-09-12T11:22:23.871Z,101398.44
2022-09-12T11:25:10.528Z,101403.19
2022-09-12T11:27:58.878Z,101389.50
2022-09-12T11:30:28.770Z,101392.94
2022-09-12T11:33:29.143Z,101385.00
2022-09-12T11:35:58.456Z,101380.53
2022-09-12T11:38:34.662Z,101388.75
2022-09-12T11:41:08.809Z,101386.09
2022-09-12T11:43:53.228Z,101389.50
2022-09-12T11:46:38.390Z,101393.78
2022-09-12T11:49:13.565Z,101380.34
2022-09-12T11:51:51.918Z,101384.50
2022-09-12T11:54:27.464Z,101386.31
2022-09-12T11:57:10.958Z,101384.25
2022-09-12T11:59:50.020Z,101377.16
2022-09-12T12:02:30.519Z,101382.44
2022-09-12T12:05:08.206Z,101381.19
2022-09-12T12:07:45.731Z,101380.69
2022-09-12T12:10:26.705Z,101380.69
2022-09-12T12:12:58.246Z,101388.34
2022-09-12T12:15:29.270Z,101383.84
2022-09-12T12:18:18.363Z,101384.94
2022-09-12T12:20:50.969Z,101388.13
2022-09-12T12:23:26.903Z,101387.03
2022-09-12T12:25:58.966Z,101388.63
2022-09-12T12:28:50.671Z,101384.41
2022-09-12T12:31:26.376Z,101383.34
2022-09-12T12:33:57.972Z,101378.50
2022-09-12T12:36:40.515Z,101364.88
2022-09-12T12:39:52.683Z,101367.03
2022-09-12T12:42:37.367Z,101365.28
2022-09-12T12:45:06.635Z,101356.94
2022-09-12T12:47:43.059Z,101355.31
2022-09-12T12:50:19.675Z,101342.44
2022-09-12T12:52:51.643Z,101347.03
2022-09-12T12:55:31.323Z,101348.38
2022-09-12T12:58:03.070Z,101353.31
2022-09-12T13:00:36.920Z,101349.88
2022-09-12T13:03:09.275Z,101337.84
2022-09-12T13:05:49.124Z,101332.66
2022-09-12T13:08:21.347Z,101328.94
2022-09-12T13:10:58.047Z,101331.56
2022-09-12T13:13:32.539Z,101326.72
2022-09-12T13:16:01.985Z,101320.25
2022-09-12T13:18:51.943Z,101327.28
2022-09-12T13:21:23.892Z,101321.59
2022-09-12T13:24:17.208Z,101314.59
2022-09-12T13:26:47.739Z,101307.41
2022-09-12T13:29:23.259Z,101301.22
2022-09-12T13:31:58.139Z,101308.47
2022-09-12T13:34:37.495Z,101314.13
2022-09-12T13:37:41.160Z,101304.75
2022-09-12T13:40:42.622Z,101299.09
2022-09-12T13:43:16.927Z,101292.75
2022-09-12T13:45:50.753Z,101283.88
2022-09-12T13:48:24.648Z,101293.31
2022-09-12T13:51:00.780Z,101296.13
2022-09-12T13:53:35.265Z,101285.59
2022-09-12T13:56:04.902Z,101282.81
2022-09-12T13:58:37.072Z,101272.06
2022-09-12T14:01:13.586Z,101273.22
2022-09-12T14:04:08.429Z,101268.06
2022-09-12T14:06:57.980Z,101263.59
2022-09-12T14:09:38.578Z,101270.59
2022-09-12T14:12:30.363Z,101265.19
2022-09-12T14:15:00.142Z,101255.75
2022-09-12T14:17:36.323Z,101260.06
2022-09-12T14:20:18.548Z,101254.94
2022-09-12T14:22:51.215Z,101259.97
2022-09-12T14:25:30.079Z,101257.66
2022-09-12T14:28:01.475Z,101243.81
2022-09-12T14:30:33.728Z,101237.78
2022-09-12T14:33:15.284Z,101234.38
2022-09-12T14:35:53.124Z,101234.66
2022-09-12T14:38:34.031Z,101228.63
2022-09-12T14:41:10.932Z,101227.00
2022-09-12T14:43:54.025Z,101222.84
2022-09-12T14:46:36.662Z,101224.16
2022-09-12T14:49:34.747Z,101233.09
2022-09-12T14:52:07.184Z,101222.06
2022-09-12T14:54:37.323Z,101228.63
2022-09-12T14:57:08.243Z,101232.56
2022-09-12T14:59:37.451Z,101246.31
2022-09-12T15:02:22.008Z,101230.84
2022-09-12T15:04:54.343Z,101222.97
2022-09-12T15:07:36.037Z,101211.16
2022-09-12T15:10:25.454Z,101200.09
2022-09-12T15:13:16.860Z,101199.84
2022-09-12T15:15:49.388Z,101206.69
2022-09-12T15:18:19.711Z,101194.31
2022-09-12T15:20:51.387Z,101200.59
2022-09-12T15:23:25.649Z,101187.75
2022-09-12T15:25:54.951Z,101191.75
2022-09-12T15:28:26.918Z,101188.34
2022-09-12T15:30:58.910Z,101181.50
2022-09-12T15:33:29.713Z,101184.94
2022-09-12T15:35:58.967Z,101192.31
2022-09-12T15:38:28.270Z,101180.75
2022-09-12T15:40:57.718Z,101186.25
2022-09-12T15:43:27.019Z,101180.19
2022-09-12T15:45:56.399Z,101176.75
2022-09-12T15:48:26.495Z,101184.88
2022-09-12T15:51:01.390Z,101182.50
2022-09-12T15:53:33.628Z,101182.50
2022-09-12T15:56:02.961Z,101170.44
2022-09-12T15:58:32.575Z,101178.59
2022-09-12T16:01:02.433Z,101169.38
2022-09-12T16:03:32.923Z,101159.94
2022-09-12T16:06:04.139Z,101157.31
2022-09-12T16:08:34.834Z,101154.16
2022-09-12T16:11:14.832Z,101153.91
2022-09-12T16:13:47.143Z,101150.75
2022-09-12T16:16:16.513Z,101165.22
2022-09-12T16:18:46.095Z,101151.59
2022-09-12T16:21:16.519Z,101146.63
2022-09-12T16:23:50.210Z,101142.41
2022-09-12T16:26:20.066Z,101140.34
2022-09-12T16:28:49.946Z,101137.19
2022-09-12T16:31:21.334Z,101132.69
2022-09-12T16:33:50.649Z,101131.13
2022-09-12T16:36:24.341Z,101133.47
2022-09-12T16:38:55.997Z,101127.41
2022-09-12T16:41:27.405Z,101127.16
2022-09-12T16:43:57.594Z,101121.91
2022-09-12T16:46:29.884Z,101122.75
2022-09-12T16:49:00.899Z,101117.75
2022-09-12T16:51:35.973Z,101123.59
2022-09-12T16:54:05.736Z,101123.38
2022-09-12T16:56:35.448Z,101111.84
2022-09-12T16:59:06.331Z,101112.41
2022-09-12T17:01:37.774Z,101116.34
2022-09-12T17:04:07.260Z,101105.88
2022-09-12T17:06:36.866Z,101100.69
2022-09-12T17:09:07.089Z,101108.63
2022-09-12T17:11:39.713Z,101116.53
2022-09-12T17:14:10.707Z,101117.38
2022-09-12T17:16:42.852Z,101107.94
2022-09-12T17:19:16.442Z,101103.72
2022-09-12T17:21:47.585Z,101103.22
2022-09-12T17:24:17.579Z,101089.84
2022-09-12T17:26:47.850Z,101096.94
2022-09-12T17:29:18.119Z,101094.31
2022-09-12T17:31:48.199Z,101104.78
2022-09-12T17:34:17.936Z,101096.38
2022-09-12T17:36:48.771Z,101086.38
2022-09-12T17:39:18.230Z,101075.34
2022-09-12T17:41:51.023Z,101069.56
2022-09-12T17:44:20.359Z,101064.78
2022-09-12T17:46:49.678Z,101062.38
2022-09-12T17:49:22.102Z,101062.31
2022-09-12T17:51:52.164Z,101060.69
2022-09-12T17:54:22.380Z,101066.41
2022-09-12T17:56:52.591Z,101069.47
2022-09-12T17:59:24.868Z,101063.69
2022-09-12T18:02:06.805Z,101057.91
2022-09-12T18:04:36.507Z,101060.00
2022-09-12T18:07:06.085Z,101064.63
2022-09-12T18:09:36.295Z,101059.34
2022-09-12T18:12:05.631Z,101064.25
2022-09-12T18:14:34.959Z,101069.19
2022-09-12T18:17:06.706Z,101061.28
2022-09-12T18:19:35.955Z,101062.56
2022-09-12T18:22:06.011Z,101060.66
2022-09-12T18:24:36.227Z,101061.91
2022-09-12T18:27:06.173Z,101068.91
2022-09-12T18:29:35.501Z,101062.03
2022-09-12T18:32:04.992Z,101066.16
2022-09-12T18:34:36.690Z,101071.06
2022-09-12T18:37:07.190Z,101073.88
2022-09-12T18:39:37.194Z,101069.34
2022-09-12T18:42:06.694Z,101064.34
2022-09-12T18:44:36.295Z,101071.59
2022-09-12T18:47:05.629Z,101080.16
2022-09-12T18:49:35.615Z,101076.38
2022-09-12T18:52:05.391Z,101074.28
2022-09-12T18:54:35.599Z,101073.44
2022-09-12T18:57:04.963Z,101068.91
2022-09-12T18:59:34.243Z,101067.28
2022-09-12T19:02:03.877Z,101072.66
2022-09-12T19:04:33.492Z,101073.91
2022-09-12T19:07:02.765Z,101088.19
2022-09-12T19:09:32.049Z,101081.06
2022-09-12T19:12:01.360Z,101087.00
2022-09-12T19:14:30.711Z,101077.50
2022-09-12T19:17:02.716Z,101079.53
2022-09-12T19:19:32.102Z,101077.09
2022-09-12T19:22:01.451Z,101086.88
2022-09-12T19:24:31.000Z,101083.16
2022-09-12T19:27:00.305Z,101082.28
2022-09-12T19:29:29.613Z,101075.66
2022-09-12T19:31:59.048Z,101065.41
2022-09-12T19:34:28.287Z,101068.69
2022-09-12T19:36:59.463Z,101067.81
2022-09-12T19:39:28.960Z,101065.66
2022-09-12T19:41:58.223Z,101051.75
2022-09-12T19:44:29.152Z,101055.28
2022-09-12T19:46:58.579Z,101047.38
2022-09-12T19:49:27.940Z,101042.03
2022-09-12T19:51:57.227Z,101035.63
2022-09-12T19:54:26.556Z,101048.88
2022-09-12T19:56:55.835Z,101042.56
2022-09-12T19:59:25.123Z,101033.88
2022-09-12T20:01:54.502Z,101030.13
2022-09-12T20:04:23.920Z,101028.16
2022-09-12T20:06:53.204Z,101020.56
2022-09-12T20:09:22.455Z,101023.31
2022-09-12T20:11:51.702Z,101022.72
2022-09-12T20:14:21.334Z,101021.34
2022-09-12T20:16:50.794Z,101022.31
2022-09-12T20:19:20.203Z,101020.44
2022-09-12T20:21:49.473Z,101023.41
2022-09-12T20:24:18.802Z,101021.03
2022-09-12T20:26:48.166Z,101009.75
2022-09-12T20:29:17.509Z,101010.72
2022-09-12T20:31:47.275Z,101003.13
2022-09-12T20:34:19.366Z,101003.81
2022-09-12T20:36:50.036Z,100999.06
2022-09-12T20:39:22.346Z,101002.91
2022-09-12T20:41:51.963Z,100995.31
2022-09-12T20:44:21.336Z,100994.41
2022-09-12T20:46:50.627Z,101006.34
2022-09-12T20:49:19.916Z,101006.22
2022-09-12T20:51:49.265Z,100989.75
2022-09-12T20:54:19.135Z,100987.22
2022-09-12T20:56:48.429Z,100993.88
2022-09-12T20:59:17.759Z,100989.94
2022-09-12T21:01:47.121Z,100978.69
2022-09-12T21:04:16.616Z,100967.94
2022-09-12T21:06:45.860Z,100961.75
2022-09-12T21:09:15.085Z,100965.75
2022-09-12T21:11:47.390Z,100965.63
2022-09-12T21:14:16.602Z,100969.19
2022-09-12T21:16:45.844Z,100963.66
2022-09-12T21:19:15.148Z,100967.19
2022-09-12T21:21:44.466Z,100978.19
2022-09-12T21:24:16.327Z,100970.44
2022-09-12T21:26:45.696Z,100963.31
2022-09-12T21:29:14.927Z,100970.59
2022-09-12T21:31:47.208Z,100984.41
2022-09-12T21:34:16.523Z,100980.94
2022-09-12T21:36:45.816Z,100987.31
2022-09-12T21:39:15.067Z,100976.84
2022-09-12T21:41:44.962Z,100979.41
2022-09-12T21:44:17.473Z,101002.28
2022-09-12T21:46:46.983Z,101004.91
2022-09-12T21:49:16.277Z,101010.50
2022-09-12T21:51:45.539Z,100990.81
2022-09-12T21:54:14.811Z,101003.03
2022-09-12T21:56:46.537Z,101003.97
2022-09-12T21:59:15.798Z,101003.13
2022-09-12T22:01:45.101Z,100987.06
2022-09-12T22:04:14.450Z,100986.41
2022-09-12T22:06:43.715Z,100980.69
2022-09-12T22:09:14.142Z,100987.31
2022-09-12T22:11:43.972Z,100996.47
2022-09-12T22:14:13.683Z,100996.78
2022-09-12T22:16:43.043Z,100998.75
2022-09-12T22:19:12.807Z,101002.25
2022-09-12T22:22:02.132Z,101012.09
2022-09-12T22:24:29.479Z,101008.75
2022-09-12T22:27:01.004Z,101016.25
2022-09-12T22:29:30.258Z,101011.47
2022-09-12T22:31:59.665Z,101018.16
2022-09-12T22:34:30.831Z,101011.00
2022-09-12T22:37:01.298Z,101003.97
2022-09-12T22:39:30.584Z,101012.00
2022-09-12T22:41:59.832Z,101002.31
2022-09-12T22:44:29.095Z,100998.50
2022-09-12T22:46:58.382Z,100996.72
2022-09-12T22:49:27.782Z,100993.38
2022-09-12T22:51:57.065Z,100995.13
2022-09-12T22:54:26.428Z,100987.81
2022-09-12T22:56:55.725Z,100983.91
2022-09-12T22:59:24.977Z,100984.97
2022-09-12T23:01:54.251Z,100989.72
2022-09-12T23:04:23.543Z,100991.00
2022-09-12T23:06:53.058Z,100982.63
2022-09-12T23:09:22.316Z,100981.88
2022-09-12T23:11:52.146Z,100982.31
2022-09-12T23:14:21.663Z,100977.00
2022-09-12T23:16:50.900Z,100969.84
2022-09-12T23:19:20.185Z,100977.13
2022-09-12T23:21:49.479Z,100965.41
2022-09-12T23:24:18.999Z,100964.44
2022-09-12T23:26:48.253Z,100969.78
2022-09-12T23:29:17.496Z,100972.34
2022-09-12T23:31:47.306Z,100953.00
2022-09-12T23:34:17.070Z,100960.66
2022-09-12T23:36:46.367Z,100952.91
2022-09-12T23:39:15.726Z,100953.66
2022-09-12T23:41:45.038Z,100957.00
2022-09-12T23:44:15.251Z,100958.31
2022-09-12T23:46:44.527Z,100944.97
2022-09-12T23:49:13.812Z,100933.84
2022-09-12T23:51:43.083Z,100937.63
2022-09-12T23:54:12.343Z,100927.19
2022-09-12T23:56:41.722Z,100937.38
2022-09-12T23:59:10.944Z,100920.25
